Time;durP1;ratioP1;P1;durP2;ratioP2;P2;SDS_P1;SDS_P2;PMS_P1;PMS_P2;Temp;Humidity;BMP_temperature;BMP_pressure;BME280_temperature;BME280_humidity;BME280_pressure;Samples;Min_cycle;Max_cycle;Signal;HPM_P1;HPM_P2
2023/06/13 00:01:18;;;;;;;4.40;4.00;;;18.20;69.40;;;;;;5041844;28;20041;-46
2023/06/13 00:03:47;;;;;;;5.68;4.10;;;18.10;69.80;;;;;;5036822;28;20045;-47
2023/06/13 00:06:15;;;;;;;5.20;4.70;;;18.00;69.80;;;;;;5027519;28;20525;-47
2023/06/13 00:08:42;;;;;;;5.57;4.20;;;18.00;69.80;;;;;;5017472;28;20523;-46
2023/06/13 00:11:07;;;;;;;4.72;4.00;;;17.90;70.10;;;;;;4996956;28;20096;-45
2023/06/13 00:13:34;;;;;;;5.65;3.70;;;17.80;70.00;;;;;;5033862;28;20037;-46
2023/06/13 00:16:00;;;;;;;8.82;4.20;;;17.80;70.40;;;;;;5033898;28;20450;-46
2023/06/13 00:18:29;;;;;;;5.38;3.95;;;17.80;70.30;;;;;;5033855;28;20244;-46
2023/06/13 00:20:55;;;;;;;5.97;4.25;;;17.70;70.40;;;;;;5033663;28;20052;-46
2023/06/13 00:23:22;;;;;;;8.75;4.13;;;17.60;70.70;;;;;;5033465;28;20045;-48
2023/06/13 00:25:48;;;;;;;7.63;4.77;;;17.60;70.90;;;;;;5032905;28;20048;-46
2023/06/13 00:28:14;;;;;;;4.40;3.90;;;17.60;70.90;;;;;;5032875;28;20041;-46
2023/06/13 00:30:39;;;;;;;6.18;4.55;;;17.50;71.10;;;;;;5033491;28;20394;-45
2023/06/13 00:33:06;;;;;;;11.05;4.43;;;17.40;71.10;;;;;;5025086;28;20729;-45
2023/06/13 00:35:31;;;;;;;9.75;4.07;;;17.40;71.10;;;;;;5010516;28;20041;-45
2023/06/13 00:37:57;;;;;;;5.82;4.20;;;17.40;71.10;;;;;;5033516;28;20045;-45
2023/06/13 00:40:24;;;;;;;5.10;4.47;;;17.30;71.60;;;;;;5050690;28;20037;-47
2023/06/13 00:42:53;;;;;;;7.13;4.57;;;17.20;71.60;;;;;;5025244;28;20091;-46
2023/06/13 00:45:23;;;;;;;7.20;4.43;;;17.20;71.80;;;;;;5007245;28;20049;-45
2023/06/13 00:47:57;;;;;;;6.05;4.20;;;17.10;71.90;;;;;;5024040;28;20052;-45
2023/06/13 00:50:26;;;;;;;8.70;4.20;;;17.00;72.30;;;;;;5006962;28;20037;-46
2023/06/13 00:52:57;;;;;;;6.63;4.40;;;17.00;72.20;;;;;;5034818;28;20380;-45
2023/06/13 00:55:24;;;;;;;9.05;4.40;;;17.00;72.20;;;;;;5032810;28;20076;-47
2023/06/13 00:57:53;;;;;;;5.72;4.63;;;16.90;72.40;;;;;;5036335;28;20164;-45
2023/06/13 01:00:22;;;;;;;4.95;4.45;;;16.90;72.10;;;;;;5030475;28;20048;-46
2023/06/13 01:02:48;;;;;;;6.85;4.50;;;16.90;72.60;;;;;;5017223;28;20052;-47
2023/06/13 01:05:13;;;;;;;6.13;4.75;;;16.90;72.40;;;;;;5030866;28;20120;-46
2023/06/13 01:07:41;;;;;;;8.52;4.40;;;16.90;72.50;;;;;;5005078;28;20542;-46
2023/06/13 01:10:07;;;;;;;;;;;16.80;72.70;;;;;;5033853;28;20124;-46
2023/06/13 01:12:40;;;;;;;6.15;5.03;;;16.80;72.40;;;;;;5033116;28;19960;-46
2023/06/13 01:15:11;;;;;;;8.98;4.50;;;16.80;72.40;;;;;;5032905;28;20052;-47
2023/06/13 01:17:42;;;;;;;6.20;4.72;;;16.80;72.60;;;;;;5032350;28;20060;-46
2023/06/13 01:20:10;;;;;;;6.68;4.60;;;16.80;72.60;;;;;;5032249;28;20049;-47
2023/06/13 01:22:54;;;;;;;6.47;4.75;;;16.70;72.60;;;;;;5032398;28;20049;-47
2023/06/13 01:25:47;;;;;;;5.55;4.90;;;16.70;72.70;;;;;;5021678;28;20112;-48
2023/06/13 01:28:14;;;;;;;6.43;5.32;;;16.70;72.70;;;;;;5033430;28;20068;-45
2023/06/13 01:30:41;;;;;;;7.53;5.32;;;16.70;72.60;;;;;;5022896;28;20525;-45
2023/06/13 01:33:08;;;;;;;7.40;5.05;;;16.80;73.20;;;;;;5024317;28;20053;-45
2023/06/13 01:35:36;;;;;;;7.32;5.25;;;16.70;73.20;;;;;;5034459;28;20508;-47
2023/06/13 01:38:05;;;;;;;7.95;5.43;;;16.70;73.10;;;;;;5024335;28;20128;-45
2023/06/13 01:40:31;;;;;;;9.07;4.90;;;16.70;73.00;;;;;;5027320;28;20041;-47
2023/06/13 01:42:56;;;;;;;8.00;5.28;;;16.60;73.20;;;;;;5036631;28;20042;-45
2023/06/13 01:45:23;;;;;;;9.65;5.97;;;16.60;73.00;;;;;;5036399;28;20059;-49
2023/06/13 01:48:09;;;;;;;5.85;5.22;;;16.60;73.20;;;;;;5036485;28;20045;-49
2023/06/13 01:50:48;;;;;;;8.88;5.22;;;16.60;73.70;;;;;;5041349;28;20479;-47
2023/06/13 01:53:39;;;;;;;8.63;5.70;;;16.50;73.80;;;;;;5028245;28;20038;-46
2023/06/13 01:56:11;;;;;;;9.25;5.25;;;16.40;73.70;;;;;;5017120;28;20049;-45
2023/06/13 01:59:00;;;;;;;8.02;5.10;;;16.40;74.00;;;;;;5032770;28;20049;-45
2023/06/13 02:01:29;;;;;;;7.25;5.53;;;16.40;75.30;;;;;;5016627;28;20142;-45
2023/06/13 02:03:55;;;;;;;6.00;5.43;;;16.40;74.80;;;;;;5033499;28;20033;-45
2023/06/13 02:06:21;;;;;;;7.85;5.40;;;16.40;74.60;;;;;;5025720;28;20049;-48
2023/06/13 02:08:46;;;;;;;7.63;5.22;;;16.30;74.70;;;;;;5032926;28;20402;-46
2023/06/13 02:11:12;;;;;;;6.70;5.28;;;16.30;74.80;;;;;;5026937;28;20037;-45
2023/06/13 02:13:38;;;;;;;9.60;5.72;;;16.30;75.10;;;;;;5010300;28;20048;-44
2023/06/13 02:16:03;;;;;;;8.68;5.20;;;16.30;74.90;;;;;;5018668;28;20069;-46
2023/06/13 02:18:30;;;;;;;8.07;5.97;;;16.20;75.10;;;;;;5035766;28;20047;-45
2023/06/13 02:20:57;;;;;;;5.93;5.28;;;16.20;75.40;;;;;;5036112;28;20050;-46
2023/06/13 02:23:23;;;;;;;7.72;5.47;;;16.20;75.70;;;;;;5030685;28;20066;-46
2023/06/13 02:25:51;;;;;;;6.15;5.55;;;16.10;75.70;;;;;;5044833;28;20080;-46
2023/06/13 02:28:17;;;;;;;7.70;5.38;;;16.10;76.00;;;;;;5043985;28;20398;-49
2023/06/13 02:30:44;;;;;;;5.68;5.03;;;16.10;76.30;;;;;;5047419;28;20038;-47
2023/06/13 02:33:10;;;;;;;5.75;4.95;;;16.00;76.10;;;;;;5055707;28;20048;-45
2023/06/13 02:35:36;;;;;;;6.38;5.05;;;16.00;77.00;;;;;;5019950;28;20177;-45
2023/06/13 02:38:06;;;;;;;5.97;5.43;;;16.00;77.30;;;;;;5016074;28;20494;-47
2023/06/13 02:40:32;;;;;;;8.63;4.90;;;15.90;76.80;;;;;;5016078;28;20077;-49
2023/06/13 02:42:58;;;;;;;10.70;6.05;;;15.90;77.60;;;;;;5033827;28;20034;-45
2023/06/13 02:45:24;;;;;;;6.68;5.97;;;15.90;77.80;;;;;;5023927;28;20053;-47
2023/06/13 02:47:50;;;;;;;6.43;5.50;;;15.90;77.80;;;;;;5022257;28;20037;-47
2023/06/13 02:50:16;;;;;;;6.47;5.82;;;15.80;77.70;;;;;;5047090;28;20038;-47
2023/06/13 02:52:42;;;;;;;6.80;5.53;;;15.80;77.90;;;;;;5035547;28;20047;-45
2023/06/13 02:55:08;;;;;;;5.65;5.15;;;15.80;78.30;;;;;;5035120;28;20037;-44
2023/06/13 02:57:36;;;;;;;8.13;5.40;;;15.70;78.70;;;;;;5027253;28;20445;-45
2023/06/13 03:00:08;;;;;;;10.55;5.38;;;15.70;78.40;;;;;;5021657;28;20085;-46
2023/06/13 03:02:36;;;;;;;7.07;5.70;;;15.70;79.10;;;;;;5023215;28;20476;-45
2023/06/13 03:05:04;;;;;;;7.10;5.32;;;15.60;79.00;;;;;;5023805;28;20593;-46
2023/06/13 03:07:31;;;;;;;8.75;5.85;;;15.60;79.40;;;;;;5023948;28;20049;-45
2023/06/13 03:10:01;;;;;;;5.95;4.78;;;15.60;79.80;;;;;;5022288;28;20049;-45
2023/06/13 03:12:26;;;;;;;7.13;5.82;;;15.60;80.00;;;;;;5009254;28;20493;-45
2023/06/13 03:14:52;;;;;;;6.78;5.40;;;15.60;80.10;;;;;;5033481;28;20045;-45
2023/06/13 03:17:18;;;;;;;7.20;5.63;;;15.50;80.10;;;;;;5033414;28;20111;-45
2023/06/13 03:19:43;;;;;;;10.15;5.35;;;15.60;80.40;;;;;;5028694;28;20033;-46
2023/06/13 03:22:13;;;;;;;7.43;5.60;;;15.50;80.80;;;;;;5027435;28;20548;-46
2023/06/13 03:24:40;;;;;;;5.53;5.00;;;15.50;80.60;;;;;;5025617;28;20124;-45
2023/06/13 03:27:06;;;;;;;8.50;5.40;;;15.50;80.90;;;;;;5026053;28;20500;-44
2023/06/13 03:29:32;;;;;;;7.85;5.20;;;15.50;82.00;;;;;;5026503;28;20044;-45
2023/06/13 03:31:58;;;;;;;8.32;5.38;;;15.50;81.90;;;;;;5023279;28;20045;-47
2023/06/13 03:34:28;;;;;;;7.03;5.70;;;15.50;82.50;;;;;;5026974;28;20069;-49
2023/06/13 03:36:54;;;;;;;8.93;5.22;;;15.50;82.50;;;;;;5005959;28;20190;-44
2023/06/13 03:39:19;;;;;;;7.32;5.43;;;15.50;82.20;;;;;;5025519;28;20406;-46
2023/06/13 03:41:45;;;;;;;6.80;5.55;;;15.50;82.20;;;;;;5024594;28;20030;-47
2023/06/13 03:44:11;;;;;;;5.95;5.40;;;15.50;83.00;;;;;;5024482;28;20045;-45
2023/06/13 03:46:37;;;;;;;8.50;5.45;;;15.50;84.00;;;;;;5019317;28;20051;-45
2023/06/13 03:49:02;;;;;;;7.28;5.78;;;15.50;83.10;;;;;;5019526;28;20099;-45
2023/06/13 03:51:28;;;;;;;8.90;5.47;;;15.50;83.10;;;;;;5023210;28;20065;-45
2023/06/13 03:53:54;;;;;;;9.27;5.43;;;15.50;83.00;;;;;;5003144;28;20057;-46
2023/06/13 03:56:19;;;;;;;6.40;5.80;;;15.50;83.40;;;;;;5018719;28;20056;-46
2023/06/13 03:58:45;;;;;;;8.30;5.32;;;15.50;84.10;;;;;;5025852;28;20043;-45
2023/06/13 04:01:11;;;;;;;9.18;5.53;;;15.50;84.70;;;;;;5022669;28;20045;-45
2023/06/13 04:03:39;;;;;;;10.23;5.45;;;15.50;84.50;;;;;;5022396;28;20049;-45
2023/06/13 04:06:06;;;;;;;6.47;5.70;;;15.50;84.70;;;;;;5017638;28;20045;-46
2023/06/13 04:08:31;;;;;;;8.50;5.30;;;15.50;84.80;;;;;;5021839;28;20099;-44
2023/06/13 04:10:57;;;;;;;7.40;5.45;;;15.60;85.40;;;;;;5026064;28;20450;-46
2023/06/13 04:13:23;;;;;;;6.82;5.50;;;15.60;85.40;;;;;;5016747;28;20042;-46
2023/06/13 04:15:48;;;;;;;9.05;5.72;;;15.60;86.20;;;;;;5015472;28;20497;-45
2023/06/13 04:18:17;;;;;;;8.05;5.70;;;15.60;85.80;;;;;;5033607;28;20088;-45
2023/06/13 04:20:43;;;;;;;5.80;5.30;;;15.60;86.20;;;;;;5016484;28;20041;-46
2023/06/13 04:23:08;;;;;;;6.10;5.53;;;15.70;86.60;;;;;;5033265;28;20045;-46
2023/06/13 04:25:35;;;;;;;6.43;5.32;;;15.70;86.70;;;;;;5036763;28;20103;-45
2023/06/13 04:28:02;;;;;;;7.88;5.13;;;15.70;87.00;;;;;;5035913;28;20053;-46
2023/06/13 04:30:29;;;;;;;7.80;5.28;;;15.80;86.60;;;;;;5031326;28;20517;-44
2023/06/13 04:32:57;;;;;;;9.43;5.32;;;15.90;86.70;;;;;;5023490;28;20038;-45
2023/06/13 04:35:23;;;;;;;6.82;5.20;;;16.30;86.90;;;;;;5027756;28;20053;-45
2023/06/13 04:37:51;;;;;;;10.85;5.57;;;17.30;85.40;;;;;;5033426;28;20041;-45
2023/06/13 04:40:18;;;;;;;8.15;5.60;;;18.20;83.80;;;;;;5027463;28;20430;-47
2023/06/13 04:42:51;;;;;;;6.47;5.22;;;18.80;80.50;;;;;;5007028;28;20041;-45
2023/06/13 04:45:20;;;;;;;6.93;5.40;;;19.40;79.40;;;;;;5025904;28;20053;-46
2023/06/13 04:47:48;;;;;;;7.25;5.57;;;19.90;78.70;;;;;;5035082;28;20040;-47
2023/06/13 04:50:14;;;;;;;8.00;5.18;;;;;;;;;;5021418;28;20080;-46
2023/06/13 04:52:40;;;;;;;5.43;4.70;;;20.90;74.80;;;;;;5023930;28;20396;-45
2023/06/13 04:55:06;;;;;;;6.20;5.15;;;20.90;73.60;;;;;;4986048;28;20052;-45
2023/06/13 04:57:32;;;;;;;5.72;5.15;;;21.10;73.60;;;;;;5023501;28;20034;-46
2023/06/13 05:00:02;;;;;;;4.95;4.45;;;21.20;72.50;;;;;;5022665;28;20103;-46
2023/06/13 05:02:28;;;;;;;7.35;5.00;;;21.50;72.90;;;;;;5027823;28;20504;-46
2023/06/13 05:04:55;;;;;;;7.15;4.68;;;22.00;72.50;;;;;;5028337;28;20080;-47
2023/06/13 05:07:21;;;;;;;9.75;4.80;;;21.90;70.60;;;;;;5022127;28;20137;-48
2023/06/13 05:09:48;;;;;;;5.60;4.53;;;22.00;70.50;;;;;;5019528;28;20626;-46
2023/06/13 05:12:13;;;;;;;6.20;4.70;;;22.40;70.70;;;;;;5021346;28;20052;-47
2023/06/13 05:14:42;;;;;;;8.10;4.70;;;;;;;;;;5022107;28;20041;-48
2023/06/13 05:17:09;;;;;;;5.47;4.30;;;22.80;69.20;;;;;;5019854;28;20045;-49
2023/06/13 05:19:37;;;;;;;6.50;4.10;;;22.80;69.00;;;;;;5024375;28;20164;-46
2023/06/13 05:22:05;;;;;;;5.53;4.43;;;22.80;68.90;;;;;;5022741;28;20175;-47
2023/06/13 05:24:31;;;;;;;4.78;4.20;;;23.00;68.70;;;;;;5023031;28;20127;-46
2023/06/13 05:27:00;;;;;;;7.63;4.70;;;23.10;68.70;;;;;;5002260;28;20054;-47
2023/06/13 05:29:26;;;;;;;7.85;4.78;;;23.20;67.80;;;;;;5004261;28;20093;-48
2023/06/13 05:31:53;;;;;;;5.18;4.28;;;23.30;68.30;;;;;;5022648;28;20104;-47
2023/06/13 05:34:18;;;;;;;5.57;4.20;;;23.30;67.70;;;;;;5023796;28;20050;-48
2023/06/13 05:36:45;;;;;;;5.70;4.40;;;23.60;68.00;;;;;;5022788;28;20029;-47
2023/06/13 05:39:12;;;;;;;6.28;4.50;;;23.60;66.70;;;;;;5025820;28;20037;-46
2023/06/13 05:41:39;;;;;;;7.32;4.05;;;23.50;66.80;;;;;;5021282;28;20045;-45
2023/06/13 05:44:05;;;;;;;4.75;4.22;;;23.90;67.30;;;;;;5021468;28;20073;-46
2023/06/13 05:46:31;;;;;;;4.88;3.65;;;23.90;66.30;;;;;;5023258;28;20403;-46
2023/06/13 05:48:57;;;;;;;9.07;3.90;;;24.10;65.70;;;;;;5022823;28;20065;-48
2023/06/13 05:51:22;;;;;;;4.25;3.85;;;24.30;66.00;;;;;;5022938;28;20033;-46
2023/06/13 05:53:48;;;;;;;4.80;3.65;;;24.50;65.40;;;;;;5021078;28;20084;-47
2023/06/13 05:56:13;;;;;;;4.72;3.90;;;24.60;65.60;;;;;;5023161;28;20107;-47
2023/06/13 05:58:39;;;;;;;7.53;4.10;;;24.50;65.30;;;;;;5024881;28;20467;-46
2023/06/13 06:01:04;;;;;;;6.15;3.72;;;24.80;64.80;;;;;;5029217;28;20566;-46
2023/06/13 06:03:31;;;;;;;5.25;3.90;;;25.00;65.00;;;;;;5021374;28;20033;-46
2023/06/13 06:05:57;;;;;;;5.55;4.03;;;24.60;64.70;;;;;;5023980;28;20136;-47
2023/06/13 06:08:23;;;;;;;7.18;4.40;;;24.50;64.90;;;;;;5022255;28;20049;-47
2023/06/13 06:10:49;;;;;;;6.13;3.58;;;24.40;64.30;;;;;;5020612;28;20042;-48
2023/06/13 06:13:14;;;;;;;7.63;3.92;;;24.80;64.90;;;;;;5039120;28;20041;-46
2023/06/13 06:15:40;;;;;;;4.75;3.58;;;24.70;64.50;;;;;;5035671;28;20077;-47
2023/06/13 06:18:06;;;;;;;4.35;3.80;;;24.70;64.40;;;;;;5021652;28;20125;-47
2023/06/13 06:20:32;;;;;;;5.95;4.40;;;24.90;64.80;;;;;;5002727;28;20175;-46
2023/06/13 06:22:57;;;;;;;7.35;3.72;;;25.00;63.80;;;;;;5034944;28;20398;-46
2023/06/13 06:25:23;;;;;;;5.50;3.28;;;25.00;63.70;;;;;;5037062;28;20056;-46
2023/06/13 06:27:49;;;;;;;6.43;3.50;;;25.20;63.80;;;;;;5055595;28;20051;-46
2023/06/13 06:30:15;;;;;;;5.70;3.47;;;25.10;63.50;;;;;;5049975;28;20178;-46
2023/06/13 06:32:42;;;;;;;8.38;3.40;;;25.10;64.00;;;;;;5044147;28;20145;-47
2023/06/13 06:35:08;;;;;;;4.95;3.60;;;25.30;63.30;;;;;;5017969;28;20048;-47
2023/06/13 06:37:34;;;;;;;5.75;3.75;;;25.20;63.90;;;;;;5001288;28;20049;-46
2023/06/13 06:40:00;;;;;;;4.85;3.78;;;25.50;63.30;;;;;;5034542;28;20099;-47
2023/06/13 06:42:26;;;;;;;5.40;3.80;;;25.30;63.70;;;;;;5026531;28;20037;-49
2023/06/13 06:44:52;;;;;;;7.10;3.33;;;25.60;64.40;;;;;;5023506;28;20400;-46
2023/06/13 06:47:18;;;;;;;5.18;3.97;;;26.00;63.50;;;;;;5025928;28;20054;-47
2023/06/13 06:49:44;;;;;;;4.00;3.60;;;26.00;63.50;;;;;;5025862;28;20037;-47
2023/06/13 06:52:09;;;;;;;4.15;3.47;;;26.00;63.40;;;;;;5023454;28;20041;-47
2023/06/13 06:54:35;;;;;;;5.78;3.92;;;25.90;63.20;;;;;;5026420;28;20125;-49
2023/06/13 06:57:02;;;;;;;3.65;3.35;;;25.80;62.80;;;;;;5023552;28;20458;-46
2023/06/13 06:59:28;;;;;;;5.45;3.35;;;25.80;62.60;;;;;;5024758;28;20139;-47
2023/06/13 07:01:53;;;;;;;6.20;3.30;;;25.60;62.70;;;;;;5024626;28;20447;-47
2023/06/13 07:04:22;;;;;;;3.88;3.55;;;26.30;63.50;;;;;;5025013;28;20033;-47
2023/06/13 07:06:47;;;;;;;5.30;3.53;;;26.30;62.30;;;;;;5024273;28;20045;-46
2023/06/13 07:09:13;;;;;;;6.00;3.50;;;26.50;62.10;;;;;;5018530;28;20061;-47
2023/06/13 07:11:39;;;;;;;4.18;2.90;;;26.40;62.10;;;;;;5027816;28;20131;-46
2023/06/13 07:14:04;;;;;;;7.18;3.65;;;27.10;62.70;;;;;;5041638;28;20505;-48
2023/06/13 07:16:30;;;;;;;4.15;3.83;;;27.00;62.10;;;;;;5023000;28;20042;-46
2023/06/13 07:18:56;;;;;;;5.35;3.33;;;26.90;62.40;;;;;;5035462;28;20215;-49
2023/06/13 07:21:21;;;;;;;5.88;3.28;;;26.90;62.30;;;;;;5040943;28;20071;-47
2023/06/13 07:23:47;;;;;;;5.63;3.40;;;27.30;62.10;;;;;;5023807;28;20065;-46
2023/06/13 07:26:14;;;;;;;3.92;3.53;;;26.80;60.90;;;;;;5022812;28;20053;-46
2023/06/13 07:28:40;;;;;;;5.15;3.40;;;26.60;61.30;;;;;;5028422;28;20064;-47
2023/06/13 07:31:05;;;;;;;12.95;3.30;;;26.40;61.60;;;;;;5027614;28;20033;-46
2023/06/13 07:33:31;;;;;;;5.38;3.65;;;26.30;60.80;;;;;;5024176;28;20067;-45
2023/06/13 07:35:57;;;;;;;7.65;3.40;;;26.20;61.90;;;;;;5027711;28;20483;-45
2023/06/13 07:38:26;;;;;;;4.38;3.28;;;26.10;61.80;;;;;;5027815;28;20033;-46
2023/06/13 07:40:52;;;;;;;5.05;3.35;;;25.90;62.50;;;;;;5025534;28;20041;-46
2023/06/13 07:43:18;;;;;;;4.47;3.40;;;25.60;63.10;;;;;;5024254;28;20063;-46
2023/06/13 07:45:45;;;;;;;6.90;3.33;;;25.40;63.20;;;;;;5021170;28;20038;-47
2023/06/13 07:48:10;;;;;;;4.22;3.28;;;25.20;63.90;;;;;;5020006;28;20526;-46
2023/06/13 07:50:36;;;;;;;4.80;3.90;;;24.60;64.10;;;;;;5029185;28;20087;-46
2023/06/13 07:53:02;;;;;;;4.45;3.40;;;24.30;65.10;;;;;;5029448;28;20538;-46
2023/06/13 07:55:28;;;;;;;7.80;3.35;;;23.80;65.70;;;;;;5025391;28;20041;-46
2023/06/13 07:57:54;;;;;;;9.32;3.78;;;23.70;66.70;;;;;;5020729;28;20049;-46
2023/06/13 08:00:20;;;;;;;7.47;3.60;;;23.60;67.00;;;;;;5026675;28;21079;-46
2023/06/13 08:02:46;;;;;;;5.68;3.45;;;23.50;67.30;;;;;;5026344;28;20034;-46
2023/06/13 08:05:13;;;;;;;4.07;3.22;;;23.50;67.60;;;;;;5036518;28;20399;-47
2023/06/13 08:07:39;;;;;;;;;;;23.40;67.90;;;;;;5045965;28;20053;-47
2023/06/13 08:10:06;;;;;;;3.90;3.42;;;23.50;67.90;;;;;;5027335;28;20412;-46
2023/06/13 08:12:31;;;;;;;6.03;4.22;;;23.40;67.90;;;;;;5026235;28;20432;-46
2023/06/13 08:14:57;;;;;;;6.65;3.83;;;23.60;67.80;;;;;;5032766;28;20491;-48
2023/06/13 08:17:24;;;;;;;5.10;3.67;;;23.50;68.30;;;;;;5022086;28;20128;-47
2023/06/13 08:19:50;;;;;;;10.05;4.28;;;23.50;68.10;;;;;;5010097;28;20049;-47
2023/06/13 08:22:17;;;;;;;5.93;3.88;;;23.80;68.10;;;;;;5022549;28;20041;-47
2023/06/13 08:24:42;;;;;;;7.50;4.20;;;23.80;68.10;;;;;;5024168;28;20050;-47
2023/06/13 08:27:10;;;;;;;5.22;4.28;;;23.90;67.50;;;;;;5025273;28;20390;-46
2023/06/13 08:29:36;;;;;;;7.45;3.97;;;23.80;67.30;;;;;;5012042;28;20068;-48
2023/06/13 08:32:02;;;;;;;5.57;4.38;;;23.70;67.00;;;;;;5026686;28;20038;-46
2023/06/13 08:34:28;;;;;;;4.72;4.05;;;23.80;66.70;;;;;;5007883;28;20509;-45
2023/06/13 08:36:54;;;;;;;5.10;3.92;;;23.60;66.80;;;;;;5008365;28;20053;-45
2023/06/13 08:39:20;;;;;;;5.82;4.35;;;23.60;67.30;;;;;;5024599;28;20033;-45
2023/06/13 08:41:47;;;;;;;9.55;3.95;;;23.70;66.70;;;;;;5027251;28;20124;-46
2023/06/13 08:44:13;;;;;;;5.57;4.30;;;23.70;66.10;;;;;;5008136;28;20452;-45
2023/06/13 08:46:39;;;;;;;4.85;4.20;;;23.70;66.60;;;;;;5022594;28;20120;-45
2023/06/13 08:49:05;;;;;;;5.45;4.07;;;24.20;66.40;;;;;;5024599;28;20406;-46
2023/06/13 08:51:31;;;;;;;6.28;4.30;;;24.20;65.90;;;;;;5006923;28;20037;-46
2023/06/13 08:54:04;;;;;;;7.50;4.68;;;24.40;65.80;;;;;;5023654;28;20501;-46
2023/06/13 08:56:35;;;;;;;6.45;4.43;;;24.40;66.00;;;;;;5007692;28;20418;-45
2023/06/13 08:59:25;;;;;;;6.75;4.05;;;24.80;65.90;;;;;;5004627;28;20045;-44
2023/06/13 09:01:52;;;;;;;5.82;4.07;;;25.00;65.80;;;;;;5021996;28;20046;-45
2023/06/13 09:04:18;;;;;;;4.60;4.10;;;25.00;65.90;;;;;;5020777;28;20124;-46
2023/06/13 09:06:45;;;;;;;6.18;4.20;;;25.20;66.00;;;;;;5024215;28;20136;-46
2023/06/13 09:09:12;;;;;;;5.95;4.63;;;25.10;64.80;;;;;;5021532;28;20073;-45
2023/06/13 09:11:38;;;;;;;7.38;4.22;;;25.40;64.90;;;;;;5005654;28;20048;-45
2023/06/13 09:14:05;;;;;;;4.90;4.13;;;25.60;65.40;;;;;;5045423;23;20277;-57
2023/06/13 09:16:32;;;;;;;5.32;4.38;;;25.80;65.10;;;;;;5095837;27;20047;-55
2023/06/13 09:18:58;;;;;;;4.38;3.97;;;25.80;64.70;;;;;;5106746;28;20040;-54
2023/06/13 09:21:24;;;;;;;7.18;3.97;;;25.80;64.10;;;;;;5104219;27;20063;-55
2023/06/13 09:23:53;;;;;;;4.15;3.63;;;25.90;64.00;;;;;;5104384;28;20048;-56
2023/06/13 09:26:18;;;;;;;5.93;4.10;;;26.10;63.50;;;;;;5082704;28;20153;-55
2023/06/13 09:28:47;;;;;;;5.65;4.25;;;26.20;64.00;;;;;;5104794;28;20036;-54
2023/06/13 09:31:13;;;;;;;8.13;4.22;;;26.30;63.40;;;;;;5104364;28;20058;-57
2023/06/13 09:33:39;;;;;;;6.85;3.75;;;26.30;63.70;;;;;;5096875;28;20040;-56
2023/06/13 09:36:05;;;;;;;4.47;3.83;;;26.30;62.40;;;;;;5104833;28;20039;-53
2023/06/13 09:38:34;;;;;;;7.75;4.05;;;26.50;63.90;;;;;;5104649;28;20625;-57
2023/06/13 09:41:03;;;;;;;4.18;3.58;;;26.60;62.00;;;;;;5104670;28;20437;-57
2023/06/13 09:43:29;;;;;;;4.78;3.85;;;26.60;62.30;;;;;;5102784;28;20495;-55
2023/06/13 09:45:55;;;;;;;6.20;4.13;;;26.80;62.30;;;;;;5100046;28;20051;-55
2023/06/13 09:48:22;;;;;;;5.18;3.80;;;27.00;62.00;;;;;;5101224;28;20040;-57
2023/06/13 09:50:49;;;;;;;6.57;3.72;;;27.10;62.30;;;;;;5105126;28;20032;-57
2023/06/13 09:53:15;;;;;;;3.53;3.22;;;27.20;61.40;;;;;;5085089;28;20118;-55
2023/06/13 09:55:41;;;;;;;5.63;3.88;;;26.70;60.60;;;;;;5104624;28;20126;-55
2023/06/13 09:58:07;;;;;;;6.97;3.90;;;26.70;61.00;;;;;;5105910;27;20138;-56
2023/06/13 10:00:33;;;;;;;5.95;3.60;;;26.60;61.10;;;;;;5107996;27;20050;-55
2023/06/13 10:02:59;;;;;;;6.53;3.55;;;26.70;60.80;;;;;;5097013;27;20080;-56
2023/06/13 10:05:25;;;;;;;6.55;3.60;;;26.80;60.70;;;;;;5113144;27;20158;-57
2023/06/13 10:07:54;;;;;;;4.75;3.60;;;26.90;60.20;;;;;;5109359;28;20446;-56
2023/06/13 10:10:21;;;;;;;3.88;3.47;;;;;;;;;;5112612;27;20180;-56
2023/06/13 10:12:53;;;;;;;3.97;3.45;;;27.30;59.10;;;;;;5113699;27;20400;-53
2023/06/13 10:15:29;;;;;;;5.30;3.58;;;27.20;60.00;;;;;;5097171;28;20061;-57
2023/06/13 10:17:59;;;;;;;6.20;3.65;;;27.40;60.60;;;;;;5088503;28;20059;-56
2023/06/13 10:20:28;;;;;;;5.05;4.10;;;27.70;60.00;;;;;;5071696;28;20101;-54
2023/06/13 10:22:55;;;;;;;4.93;3.70;;;27.50;57.90;;;;;;5078958;28;20100;-56
2023/06/13 10:25:25;;;;;;;3.55;3.25;;;27.60;57.80;;;;;;5076049;28;20044;-55
2023/06/13 10:27:53;;;;;;;4.38;3.72;;;27.70;59.90;;;;;;5076950;28;20134;-57
2023/06/13 10:30:43;;;;;;;5.72;3.83;;;27.90;57.40;;;;;;5093265;28;20036;-55
2023/06/13 10:33:27;;;;;;;3.80;3.45;;;27.60;57.20;;;;;;5091013;28;20127;-54
2023/06/13 10:36:02;;;;;;;7.50;4.47;;;27.80;57.30;;;;;;5085193;28;20098;-57
2023/06/13 10:38:48;;;;;;;4.80;4.20;;;27.60;54.80;;;;;;5085741;28;20115;-55
2023/06/13 10:41:43;;;;;;;6.85;3.50;;;27.60;56.50;;;;;;5087015;28;20108;-57
2023/06/13 10:44:18;;;;;;;8.65;4.10;;;28.00;57.90;;;;;;5086980;28;20040;-54
2023/06/13 10:46:45;;;;;;;3.92;3.47;;;28.10;57.50;;;;;;5083772;28;20076;-57
2023/06/13 10:49:15;;;;;;;5.22;3.90;;;28.10;56.90;;;;;;5088486;28;20515;-57
2023/06/13 10:51:43;;;;;;;5.40;4.57;;;28.10;55.30;;;;;;5089684;28;20562;-57
2023/06/13 10:54:11;;;;;;;6.13;4.10;;;28.00;54.80;;;;;;5086716;28;20036;-57
2023/06/13 10:56:39;;;;;;;4.30;3.50;;;28.00;54.50;;;;;;5089105;28;20044;-57
2023/06/13 10:59:05;;;;;;;4.32;3.92;;;27.60;54.20;;;;;;5087457;28;20043;-55
2023/06/13 11:01:33;;;;;;;4.43;3.70;;;27.80;54.40;;;;;;5086397;28;20131;-58
2023/06/13 11:04:17;;;;;;;4.63;4.07;;;27.70;54.50;;;;;;5086860;28;20033;-57
2023/06/13 11:06:44;;;;;;;5.95;3.92;;;27.70;54.30;;;;;;5088820;28;20393;-55
2023/06/13 11:09:16;;;;;;;5.40;3.97;;;27.80;54.70;;;;;;5085892;28;20043;-58
2023/06/13 11:11:53;;;;;;;7.93;4.30;;;27.90;54.40;;;;;;5085682;28;20047;-56
2023/06/13 11:14:26;;;;;;;3.65;3.35;;;28.00;55.00;;;;;;5090535;28;20071;-57
2023/06/13 11:16:53;;;;;;;3.80;3.47;;;27.90;54.40;;;;;;5088081;28;20097;-54
2023/06/13 11:19:21;;;;;;;5.55;3.95;;;28.10;54.10;;;;;;5084010;28;20913;-57
2023/06/13 11:21:59;;;;;;;4.75;4.03;;;28.10;54.50;;;;;;5088353;28;20044;-56
2023/06/13 11:24:27;;;;;;;5.50;3.92;;;28.10;54.40;;;;;;5085452;28;20059;-56
2023/06/13 11:26:55;;;;;;;7.85;4.35;;;28.30;54.10;;;;;;5090740;28;20044;-56
2023/06/13 11:29:21;;;;;;;5.25;3.75;;;28.30;54.30;;;;;;5096664;28;20135;-54
2023/06/13 11:31:51;;;;;;;5.00;3.65;;;28.00;53.40;;;;;;5094415;28;20080;-55
2023/06/13 11:34:20;;;;;;;6.10;4.07;;;28.00;54.30;;;;;;5096223;28;20130;-56
2023/06/13 11:36:46;;;;;;;5.03;3.97;;;28.30;54.60;;;;;;5094903;28;20043;-55
2023/06/13 11:39:15;;;;;;;6.57;3.88;;;28.10;53.30;;;;;;5095716;28;20044;-57
2023/06/13 11:41:42;;;;;;;8.05;3.85;;;28.10;54.50;;;;;;5094622;28;20044;-54
2023/06/13 11:44:08;;;;;;;;;;;28.10;54.50;;;;;;5094337;28;20032;-53
2023/06/13 11:46:34;;;;;;;8.43;4.13;;;28.10;53.80;;;;;;5094638;28;19973;-55
2023/06/13 11:49:00;;;;;;;5.32;4.00;;;28.10;53.40;;;;;;5095989;28;20047;-52
2023/06/13 11:51:30;;;;;;;6.07;4.00;;;28.20;53.20;;;;;;5095733;28;20485;-53
2023/06/13 11:54:01;;;;;;;5.32;3.67;;;28.10;52.50;;;;;;5078326;28;20054;-55
2023/06/13 11:56:28;;;;;;;6.40;4.40;;;28.30;53.60;;;;;;5095320;28;20040;-55
2023/06/13 11:58:55;;;;;;;4.93;4.05;;;28.20;52.30;;;;;;5085388;28;20459;-52
2023/06/13 12:01:25;;;;;;;6.32;4.00;;;28.20;52.90;;;;;;5095260;28;20082;-55
2023/06/13 12:03:52;;;;;;;4.82;3.72;;;28.40;52.70;;;;;;5075052;28;20128;-55
2023/06/13 12:06:19;;;;;;;5.30;4.07;;;28.50;52.50;;;;;;5093987;28;20044;-53
2023/06/13 12:08:45;;;;;;;4.68;4.03;;;28.50;52.10;;;;;;5075825;28;20062;-54
2023/06/13 12:11:18;;;;;;;5.47;4.03;;;28.20;51.80;;;;;;5088397;28;20532;-54
2023/06/13 12:13:55;;;;;;;4.97;3.75;;;28.20;51.70;;;;;;5092350;28;20040;-52
2023/06/13 12:16:35;;;;;;;6.65;4.32;;;28.60;53.00;;;;;;5084714;28;20048;-55
2023/06/13 12:19:01;;;;;;;5.68;3.67;;;28.70;52.70;;;;;;5085160;28;20055;-57
2023/06/13 12:21:34;;;;;;;7.43;4.10;;;28.70;52.40;;;;;;5082403;28;20051;-57
2023/06/13 12:24:02;;;;;;;4.60;4.05;;;28.70;52.40;;;;;;5095134;28;20429;-57
2023/06/13 12:26:33;;;;;;;6.88;4.13;;;28.50;52.10;;;;;;5082182;28;20048;-52
2023/06/13 12:29:07;;;;;;;4.75;3.70;;;28.50;52.30;;;;;;5069078;28;20049;-56
2023/06/13 12:31:44;;;;;;;4.40;3.97;;;28.60;51.30;;;;;;5092886;28;20055;-57
2023/06/13 12:34:27;;;;;;;4.30;3.92;;;28.40;51.30;;;;;;5089907;28;20040;-58
2023/06/13 12:36:57;;;;;;;5.13;4.10;;;28.70;50.20;;;;;;5093740;28;20449;-58
2023/06/13 12:39:23;;;;;;;4.65;4.03;;;28.40;50.50;;;;;;5096839;28;20114;-57
2023/06/13 12:41:52;;;;;;;5.95;4.05;;;28.60;51.40;;;;;;5097830;28;20079;-57
2023/06/13 12:44:20;;;;;;;4.50;4.10;;;28.80;51.40;;;;;;5081069;28;20063;-58
2023/06/13 12:46:46;;;;;;;5.53;3.60;;;28.70;51.40;;;;;;5077591;28;20052;-56
2023/06/13 12:49:14;;;;;;;5.07;3.83;;;28.90;51.70;;;;;;5075411;28;20040;-58
2023/06/13 12:51:45;;;;;;;4.35;3.95;;;28.90;50.80;;;;;;5081609;28;20044;-58